This is the latest recevied weather packets stored in our database for station/object Waldburg. If no packets are shown the sender has not sent any weather packets the latest 10 day(s).
| Time | Temp. | Humidity | Pressure | Rain* | Wind** | Luminosity | Snow |
|---|---|---|---|---|---|---|---|
| 1777782731 | 12.78° C | 62% | 1013.6 hPa | 0 mm | - | - | - |
| 1777780930 | 12.78° C | 63% | 1013.6 hPa | 0 mm | - | - | - |
| 1777779131 | 12.22° C | 65% | 1013.7 hPa | 0 mm | - | - | - |
| 1777777331 | 11.67° C | 67% | 1013.7 hPa | 0 mm | - | - | - |
| 1777775531 | 11.67° C | 67% | 1013.9 hPa | 0 mm | - | - | - |
| 1777773731 | 12.22° C | 65% | 1014 hPa | 0 mm | - | - | - |
| 1777771932 | 13.33° C | 58% | 1014.1 hPa | 0 mm | - | - | - |
| 1777770132 | 14.44° C | 55% | 1014.1 hPa | 0 mm | - | - | - |
| 1777768329 | 13.89° C | 56% | 1014.2 hPa | 0 mm | - | - | - |
| 1777766530 | 13.89° C | 55% | 1014.3 hPa | 0 mm | - | - | - |
| 1777764730 | 13.89° C | 56% | 1014.4 hPa | 0 mm | - | - | - |
| 1777762930 | 15.56° C | 51% | 1014.6 hPa | 0 mm | - | - | - |
| 1777761131 | 16.67° C | 47% | 1014.8 hPa | 0 mm | - | - | - |
| 1777759330 | 17.22° C | 45% | 1014.7 hPa | 0 mm | - | - | - |
| 1777757530 | 17.78° C | 42% | 1014.7 hPa | 0 mm | - | - | - |
| 1777755729 | 18.89° C | 39% | 1014.8 hPa | 0 mm | - | - | - |
| 1777753930 | 18.89° C | 38% | 1015 hPa | 0 mm | - | - | - |
| 1777752130 | 19.44° C | 38% | 1015.3 hPa | 0 mm | - | - | - |
| 1777750335 | 19.44° C | 38% | 1015.3 hPa | 0 mm | - | - | - |
| 1777748537 | 20° C | 38% | 1015.2 hPa | 0 mm | - | - | - |
| 1777746730 | 20° C | 38% | 1015.1 hPa | 0 mm | - | - | - |
| 1777744931 | 20.56° C | 37% | 1015 hPa | 0 mm | - | - | - |
| 1777743130 | 21.67° C | 34% | 1015.1 hPa | 0 mm | - | - | - |
| 1777741330 | 21.67° C | 32% | 1015.2 hPa | 0 mm | - | - | - |
| 1777739530 | 22.78° C | 32% | 1015.5 hPa | 0 mm | - | - | - |
* Rain since midnight (hover to see other rain measurements)
** Current wind speed in m/s (hover to see current wind gust speed)